Time;durP1;ratioP1;P1;durP2;ratioP2;P2;SDS_P1;SDS_P2;PMS_P1;PMS_P2;Temp;Humidity;BMP_temperature;BMP_pressure;BME280_temperature;BME280_humidity;BME280_pressure;Samples;Min_cycle;Max_cycle;Signal;HPM_P1;HPM_P2
2021/04/17 00:01:40;;;;;;;;;;;6.00;89.40;;;;;;5084631;28;20303;-76
2021/04/17 00:04:06;;;;;;;;;;;6.00;89.90;;;;;;5088680;28;19911;-76
2021/04/17 00:06:32;;;;;;;;;;;6.00;90.00;;;;;;5089340;28;19949;-76
2021/04/17 00:08:57;;;;;;;;;;;6.00;89.60;;;;;;5092887;28;19987;-76
2021/04/17 00:11:23;;;;;;;;;;;6.00;89.20;;;;;;5090491;28;19919;-76
2021/04/17 00:13:48;;;;;;;;;;;5.90;89.10;;;;;;5090979;28;20504;-76
2021/04/17 00:16:16;;;;;;;;;;;5.90;89.40;;;;;;5092031;28;19912;-76
2021/04/17 00:18:44;;;;;;;;;;;5.90;89.80;;;;;;5087884;28;19973;-76
2021/04/17 00:21:10;;;;;;;;;;;5.80;89.20;;;;;;5075921;28;20731;-76
2021/04/17 00:23:36;;;;;;;;;;;5.80;89.60;;;;;;5089477;28;20015;-76
2021/04/17 00:26:01;;;;;;;;;;;5.80;89.10;;;;;;5092851;28;19916;-76
2021/04/17 00:28:29;;;;;;;;;;;5.80;89.10;;;;;;5087614;28;19920;-76
2021/04/17 00:30:55;;;;;;;;;;;5.80;89.00;;;;;;5092040;28;19912;-76
2021/04/17 00:33:22;;;;;;;;;;;5.70;89.60;;;;;;5088907;28;19919;-76
2021/04/17 00:35:48;;;;;;;;;;;5.60;89.40;;;;;;5091387;28;19942;-76
2021/04/17 00:38:14;;;;;;;;;;;5.60;89.40;;;;;;5093473;28;20337;-76
2021/04/17 00:40:39;;;;;;;;;;;5.60;89.70;;;;;;5102836;28;20715;-76
2021/04/17 00:43:10;;;;;;;;;;;5.50;89.80;;;;;;5090313;28;20348;-76
2021/04/17 00:45:37;;;;;;;;;;;5.50;90.20;;;;;;5088566;28;19926;-76
2021/04/17 00:48:03;;;;;;;;;;;5.50;90.60;;;;;;5089006;28;19915;-76
2021/04/17 00:50:28;;;;;;;;;;;5.40;90.30;;;;;;5087928;28;19923;-76
2021/04/17 00:52:54;;;;;;;;;;;5.40;90.40;;;;;;5091944;28;19912;-76
2021/04/17 00:55:20;;;;;;;;;;;5.40;90.60;;;;;;5086318;28;19923;-76
2021/04/17 00:57:45;;;;;;;;;;;5.40;90.60;;;;;;5090930;28;19923;-76
2021/04/17 01:00:12;;;;;;;;;;;5.30;90.80;;;;;;5084553;28;19931;-76
2021/04/17 01:02:39;;;;;;;;;;;5.30;90.70;;;;;;5087542;28;19912;-76
2021/04/17 01:05:06;;;;;;;;;;;5.30;90.60;;;;;;5087606;28;20005;-76
2021/04/17 01:07:47;;;;;;;;;;;5.20;91.10;;;;;;5087748;28;19921;-76
2021/04/17 01:10:30;;;;;;;;;;;5.20;91.20;;;;;;5086072;28;19916;-76
2021/04/17 01:12:55;;;;;;;;;;;5.20;91.30;;;;;;5073376;28;19990;-76
2021/04/17 01:15:24;;;;;;;;;;;5.20;91.30;;;;;;5088129;28;20324;-76
2021/04/17 01:17:53;;;;;;;;;;;5.20;91.50;;;;;;5083372;28;20284;-76
2021/04/17 01:20:24;;;;;;;;;;;5.20;91.80;;;;;;5088928;28;19939;-76
2021/04/17 01:23:05;;;;;;;;;;;5.20;91.80;;;;;;5105013;27;20326;-76
2021/04/17 01:25:49;;;;;;;;;;;5.20;92.00;;;;;;5081078;28;19916;-76
2021/04/17 01:28:15;;;;;;;;;;;5.20;92.10;;;;;;5090312;28;19936;-76
2021/04/17 01:30:41;;;;;;;;;;;5.20;92.80;;;;;;5092210;28;19963;-76
2021/04/17 01:33:11;;;;;;;;;;;5.20;92.50;;;;;;5091714;28;19947;-76
2021/04/17 01:35:37;;;;;;;;;;;5.20;93.20;;;;;;5091686;28;19912;-76
2021/04/17 01:38:04;;;;;;;;;;;5.20;93.70;;;;;;5093492;28;20516;-76
2021/04/17 01:40:33;;;;;;;;;;;5.10;93.70;;;;;;5093039;28;19912;-76
2021/04/17 01:42:58;;;;;;;;;;;5.10;93.20;;;;;;5076603;28;20011;-76
2021/04/17 01:45:24;;;;;;;;;;;5.10;94.20;;;;;;5096318;28;19995;-76
2021/04/17 01:47:51;;;;;;;;;;;5.10;95.10;;;;;;5096336;28;19920;-76
2021/04/17 01:50:16;;;;;;;;;;;5.10;94.70;;;;;;5092703;28;19923;-76
2021/04/17 01:52:42;;;;;;;;;;;5.10;94.90;;;;;;5090675;28;20269;-76
2021/04/17 01:55:08;;;;;;;;;;;5.10;95.10;;;;;;5092181;28;19916;-76
2021/04/17 01:57:33;;;;;;;;;;;5.10;95.60;;;;;;5078112;28;19924;-76
2021/04/17 01:59:59;;;;;;;;;;;5.10;93.30;;;;;;5091527;28;19926;-76
2021/04/17 02:02:27;;;;;;;;;;;5.20;94.10;;;;;;5088897;28;19917;-76
2021/04/17 02:04:52;;;;;;;;;;;5.20;94.00;;;;;;5086850;28;19917;-76
2021/04/17 02:07:17;;;;;;;;;;;5.20;95.00;;;;;;5089544;28;19924;-76
2021/04/17 02:09:43;;;;;;;;;;;5.30;94.10;;;;;;5091913;28;19927;-76
2021/04/17 02:12:09;;;;;;;;;;;5.30;92.90;;;;;;4740590;27;10000344;-84
2021/04/17 02:14:34;;;;;;;;;;;5.40;93.50;;;;;;5089447;28;20586;-85
2021/04/17 02:17:06;;;;;;;;;;;5.40;92.60;;;;;;5081926;28;20016;-84
2021/04/17 02:19:35;;;;;;;;;;;5.50;92.20;;;;;;5079258;28;19931;-85
2021/04/17 02:22:01;;;;;;;;;;;5.50;92.30;;;;;;5077432;28;19931;-86
2021/04/17 02:24:30;;;;;;;;;;;5.60;89.50;;;;;;5078304;28;19912;-85
2021/04/17 02:26:55;;;;;;;;;;;5.70;89.90;;;;;;5077743;28;19931;-84
2021/04/17 02:29:23;;;;;;;;;;;5.70;89.00;;;;;;5077865;28;19919;-85
2021/04/17 02:31:49;;;;;;;;;;;5.80;88.60;;;;;;5077804;28;19959;-85
2021/04/17 02:34:15;;;;;;;;;;;5.80;87.50;;;;;;5078963;28;20372;-86
2021/04/17 02:36:40;;;;;;;;;;;5.80;85.50;;;;;;5075307;28;19930;-84
2021/04/17 02:39:08;;;;;;;;;;;5.90;85.20;;;;;;5078289;28;19916;-85
2021/04/17 02:41:34;;;;;;;;;;;5.90;84.20;;;;;;5076271;28;20122;-85
2021/04/17 02:43:59;;;;;;;;;;;5.90;85.50;;;;;;5076826;28;20447;-87
2021/04/17 02:46:25;;;;;;;;;;;5.90;84.10;;;;;;5078098;28;19931;-85
2021/04/17 02:48:50;;;;;;;;;;;5.90;83.50;;;;;;5078117;28;19912;-85
2021/04/17 02:51:16;;;;;;;;;;;5.90;84.50;;;;;;5078586;28;19916;-84
2021/04/17 02:53:41;;;;;;;;;;;5.90;83.10;;;;;;5077490;28;19920;-84
2021/04/17 02:56:09;;;;;;;;;;;5.90;84.60;;;;;;5074974;28;19920;-84
2021/04/17 02:58:35;;;;;;;;;;;5.90;82.70;;;;;;5075698;28;19920;-84
2021/04/17 03:01:00;;;;;;;;;;;5.90;83.20;;;;;;5094252;27;19927;-84
2021/04/17 03:03:26;;;;;;;;;;;5.90;84.70;;;;;;5072663;28;19920;-84
2021/04/17 03:05:51;;;;;;;;;;;5.90;84.50;;;;;;5077412;28;19915;-85
2021/04/17 03:08:17;;;;;;;;;;;5.90;84.00;;;;;;5076475;28;20253;-85
2021/04/17 03:10:42;;;;;;;;;;;5.90;84.70;;;;;;5074748;28;20346;-85
2021/04/17 03:13:08;;;;;;;;;;;5.90;83.60;;;;;;5077072;28;19946;-85
2021/04/17 03:15:34;;;;;;;;;;;5.90;83.00;;;;;;5075762;28;19963;-85
2021/04/17 03:17:59;;;;;;;;;;;5.80;84.00;;;;;;5076193;28;19916;-84
2021/04/17 03:20:25;;;;;;;;;;;5.80;84.30;;;;;;5081277;28;19920;-85
2021/04/17 03:22:53;;;;;;;;;;;5.80;85.00;;;;;;5088473;28;19917;-85
2021/04/17 03:25:18;;;;;;;;;;;5.70;84.80;;;;;;5084701;28;19920;-86
2021/04/17 03:27:46;;;;;;;;;;;5.70;84.90;;;;;;5088907;28;20367;-86
2021/04/17 03:30:13;;;;;;;;;;;5.60;84.90;;;;;;5080613;28;19925;-86
2021/04/17 03:32:41;;;;;;;;;;;5.60;85.30;;;;;;5082462;28;19920;-85
2021/04/17 03:35:07;;;;;;;;;;;5.50;85.40;;;;;;5076221;28;19919;-85
2021/04/17 03:37:35;;;;;;;;;;;5.50;85.20;;;;;;5075403;28;19921;-85
2021/04/17 03:40:00;;;;;;;;;;;5.50;85.30;;;;;;5084274;28;19948;-85
2021/04/17 03:42:26;;;;;;;;;;;5.50;84.40;;;;;;5078531;28;19959;-84
2021/04/17 03:44:51;;;;;;;;;;;5.40;84.00;;;;;;5074840;28;19917;-85
2021/04/17 03:47:17;;;;;;;;;;;5.40;84.90;;;;;;5074835;28;20372;-85
2021/04/17 03:49:42;;;;;;;;;;;5.30;85.40;;;;;;5077192;28;20265;-84
2021/04/17 03:52:11;;;;;;;;;;;5.30;84.00;;;;;;5091190;28;19928;-85
2021/04/17 03:54:39;;;;;;;;;;;5.30;85.70;;;;;;5087904;28;20226;-83
2021/04/17 03:57:07;;;;;;;;;;;5.20;85.20;;;;;;5086779;28;19927;-84
2021/04/17 03:59:33;;;;;;;;;;;5.20;84.10;;;;;;5091284;28;19930;-85
2021/04/17 04:01:58;;;;;;;;;;;5.10;84.60;;;;;;5078391;28;19920;-84
2021/04/17 04:04:24;;;;;;;;;;;5.20;85.50;;;;;;5086601;28;19924;-84
2021/04/17 04:06:49;;;;;;;;;;;5.10;84.70;;;;;;5076021;28;19916;-85
2021/04/17 04:09:15;;;;;;;;;;;5.10;84.60;;;;;;5075694;28;19981;-86
2021/04/17 04:11:40;;;;;;;;;;;5.10;85.60;;;;;;5074456;28;19941;-86
2021/04/17 04:14:06;;;;;;;;;;;5.10;85.40;;;;;;5077144;28;19920;-86
2021/04/17 04:16:31;;;;;;;;;;;5.00;85.00;;;;;;5074473;28;20005;-86
2021/04/17 04:18:57;;;;;;;;;;;5.00;85.30;;;;;;5076688;28;19920;-85
2021/04/17 04:21:22;;;;;;;;;;;5.00;85.50;;;;;;5078659;28;19926;-87
2021/04/17 04:23:50;;;;;;;;;;;5.00;85.50;;;;;;5075459;28;20026;-85
2021/04/17 04:26:16;;;;;;;;;;;5.00;85.40;;;;;;5074685;28;20019;-86
2021/04/17 04:28:43;;;;;;;;;;;5.00;85.10;;;;;;5074236;28;20459;-86
2021/04/17 04:31:08;;;;;;;;;;;5.00;85.70;;;;;;5077517;28;19926;-86
2021/04/17 04:33:34;;;;;;;;;;;5.00;85.40;;;;;;5078707;28;19916;-86
2021/04/17 04:36:01;;;;;;;;;;;5.00;85.60;;;;;;5077984;28;19930;-85
2021/04/17 04:38:27;;;;;;;;;;;4.90;85.30;;;;;;5088652;28;19920;-87
2021/04/17 04:40:53;;;;;;;;;;;4.90;86.00;;;;;;5094388;28;20260;-85
2021/04/17 04:43:18;;;;;;;;;;;4.90;85.40;;;;;;5089543;28;19931;-85
2021/04/17 04:45:44;;;;;;;;;;;4.90;86.30;;;;;;5076829;28;19916;-87
2021/04/17 04:48:09;;;;;;;;;;;4.90;85.70;;;;;;5085042;28;19924;-86
2021/04/17 04:50:37;;;;;;;;;;;4.80;86.00;;;;;;5090806;28;19923;-84
2021/04/17 04:53:03;;;;;;;;;;;4.80;86.10;;;;;;5080034;28;19916;-85
2021/04/17 04:55:28;;;;;;;;;;;4.80;85.20;;;;;;5081149;28;20372;-86
2021/04/17 04:57:54;;;;;;;;;;;4.80;84.70;;;;;;5086026;28;19919;-83
2021/04/17 05:00:19;;;;;;;;;;;4.90;86.00;;;;;;5079652;28;19916;-86
2021/04/17 05:02:45;;;;;;;;;;;4.90;84.20;;;;;;5081587;28;19931;-84
2021/04/17 05:05:11;;;;;;;;;;;4.90;85.50;;;;;;5079478;28;19916;-85
2021/04/17 05:07:36;;;;;;;;;;;4.90;84.90;;;;;;5084966;28;19924;-87
2021/04/17 05:10:02;;;;;;;;;;;4.90;84.00;;;;;;5093623;28;19912;-86
2021/04/17 05:12:28;;;;;;;;;;;5.00;84.80;;;;;;5070416;28;19950;-86
2021/04/17 05:14:53;;;;;;;;;;;5.00;83.40;;;;;;5083546;28;20326;-89
2021/04/17 05:17:19;;;;;;;;;;;5.10;82.30;;;;;;5083184;28;19920;-87
2021/04/17 05:19:45;;;;;;;;;;;5.10;82.50;;;;;;5089083;28;19927;-88
2021/04/17 05:22:10;;;;;;;;;;;5.20;82.70;;;;;;5083871;28;20042;-86
2021/04/17 05:24:36;;;;;;;;;;;5.20;81.70;;;;;;5079542;28;19920;-86
2021/04/17 05:27:02;;;;;;;;;;;5.20;81.80;;;;;;5082545;28;19943;-87
2021/04/17 05:29:30;;;;;;;;;;;5.30;81.40;;;;;;5091290;28;19916;-86
2021/04/17 05:31:57;;;;;;;;;;;5.30;80.10;;;;;;5087560;28;19931;-86
2021/04/17 05:34:25;;;;;;;;;;;5.40;82.40;;;;;;5090096;28;19920;-86
2021/04/17 05:36:51;;;;;;;;;;;5.30;79.60;;;;;;5089417;28;19939;-86
2021/04/17 05:39:16;;;;;;;;;;;5.40;79.90;;;;;;5090397;28;19967;-86
2021/04/17 05:41:42;;;;;;;;;;;5.40;80.40;;;;;;5093310;28;19943;-86
2021/04/17 05:44:11;;;;;;;;;;;5.50;80.30;;;;;;5090669;28;20367;-86
2021/04/17 05:46:42;;;;;;;;;;;5.50;80.80;;;;;;5088628;28;20332;-85
2021/04/17 05:49:07;;;;;;;;;;;5.50;81.40;;;;;;5089619;28;19928;-86
2021/04/17 05:51:33;;;;;;;;;;;5.50;79.30;;;;;;5092049;28;19912;-87
2021/04/17 05:54:01;;;;;;;;;;;5.60;81.10;;;;;;5074233;28;19931;-86
2021/04/17 05:56:27;;;;;;;;;;;5.70;80.70;;;;;;5087851;28;20329;-88
2021/04/17 05:58:53;;;;;;;;;;;5.70;79.80;;;;;;5090215;28;19931;-86
2021/04/17 06:01:18;;;;;;;;;;;5.70;81.00;;;;;;5086824;28;19926;-87
2021/04/17 06:03:44;;;;;;;;;;;5.70;80.40;;;;;;5087241;28;19911;-87
2021/04/17 06:06:11;;;;;;;;;;;5.80;82.10;;;;;;5080270;28;20055;-86
2021/04/17 06:08:39;;;;;;;;;;;5.80;81.80;;;;;;5091011;28;20022;-86
2021/04/17 06:11:05;;;;;;;;;;;5.90;82.10;;;;;;5096521;28;20481;-85
2021/04/17 06:13:32;;;;;;;;;;;6.00;82.50;;;;;;5088629;28;20033;-86
2021/04/17 06:15:57;;;;;;;;;;;6.10;81.10;;;;;;5088403;28;19912;-85
2021/04/17 06:18:23;;;;;;;;;;;6.10;81.00;;;;;;5083820;28;20281;-85
2021/04/17 06:20:48;;;;;;;;;;;6.20;79.00;;;;;;5092019;28;19926;-86
2021/04/17 06:23:14;;;;;;;;;;;6.10;77.10;;;;;;5090784;28;19977;-86
2021/04/17 06:25:40;;;;;;;;;;;6.20;79.10;;;;;;5093096;28;19981;-86
2021/04/17 06:28:05;;;;;;;;;;;6.20;78.30;;;;;;5072222;28;19935;-86
2021/04/17 06:30:31;;;;;;;;;;;6.10;77.60;;;;;;5088675;28;19913;-85
2021/04/17 06:32:56;;;;;;;;;;;6.20;78.60;;;;;;5085528;28;19916;-87
2021/04/17 06:35:22;;;;;;;;;;;6.20;78.10;;;;;;5085144;28;19955;-87
2021/04/17 06:37:50;;;;;;;;;;;6.30;79.00;;;;;;5085449;28;20006;-87
2021/04/17 06:40:15;;;;;;;;;;;6.30;78.70;;;;;;5091611;28;19920;-86
2021/04/17 06:42:41;;;;;;;;;;;6.30;79.60;;;;;;5086887;28;20348;-87
2021/04/17 06:45:07;;;;;;;;;;;6.40;76.40;;;;;;5101088;27;19912;-87
2021/04/17 06:47:37;;;;;;;;;;;6.40;78.70;;;;;;5080952;28;19982;-87
2021/04/17 06:50:05;;;;;;;;;;;6.30;76.80;;;;;;5111997;27;19930;-87
2021/04/17 06:52:30;;;;;;;;;;;6.30;77.60;;;;;;5063937;28;19958;-83
2021/04/17 06:54:56;;;;;;;;;;;6.20;76.30;;;;;;5090419;28;20013;-88
2021/04/17 06:57:24;;;;;;;;;;;6.10;77.40;;;;;;5088369;28;19969;-87
2021/04/17 06:59:49;;;;;;;;;;;6.20;79.70;;;;;;5081548;28;19916;-87
2021/04/17 07:02:15;;;;;;;;;;;6.20;77.90;;;;;;5077713;28;20015;-85
2021/04/17 07:04:41;;;;;;;;;;;6.20;78.50;;;;;;5076189;28;19966;-85
2021/04/17 07:07:06;;;;;;;;;;;6.30;79.90;;;;;;5094827;27;19927;-87
2021/04/17 07:09:34;;;;;;;;;;;6.30;78.40;;;;;;5078078;28;19920;-87
2021/04/17 07:12:00;;;;;;;;;;;6.30;77.70;;;;;;5078556;28;19930;-90
2021/04/17 07:14:28;;;;;;;;;;;6.40;78.70;;;;;;5077676;28;19916;-87
2021/04/17 07:17:00;;;;;;;;;;;6.40;79.40;;;;;;5077859;28;19916;-87
2021/04/17 07:19:47;;;;;;;;;;;6.40;78.00;;;;;;5080890;28;19927;-88
2021/04/17 07:22:20;;;;;;;;;;;6.40;79.00;;;;;;5088728;28;20016;-89
2021/04/17 07:24:49;;;;;;;;;;;6.50;78.90;;;;;;5077395;28;19932;-88
2021/04/17 07:27:35;;;;;;;;;;;6.50;79.80;;;;;;5080308;28;19964;-87
2021/04/17 07:30:07;;;;;;;;;;;6.60;78.60;;;;;;5078964;28;19989;-88
2021/04/17 07:32:39;;;;;;;;;;;6.70;77.40;;;;;;5075426;28;19912;-87
2021/04/17 07:35:09;;;;;;;;;;;6.80;79.00;;;;;;5087438;28;19912;-85
2021/04/17 07:37:35;;;;;;;;;;;7.00;77.10;;;;;;5084485;28;20003;-89
2021/04/17 07:40:18;;;;;;;;;;;7.10;77.00;;;;;;5066372;28;19920;-86
2021/04/17 07:42:47;;;;;;;;;;;7.30;77.30;;;;;;5078589;28;19960;-84
2021/04/17 07:45:28;;;;;;;;;;;7.40;74.60;;;;;;5083315;28;19976;-82
2021/04/17 07:48:00;;;;;;;;;;;7.40;75.70;;;;;;4728611;27;10000169;-88
2021/04/17 07:50:29;;;;;;;;;;;7.50;74.30;;;;;;5078794;28;19917;-91
2021/04/17 07:52:55;;;;;;;;;;;7.50;72.60;;;;;;5094790;27;19920;-89
2021/04/17 07:55:22;;;;;;;;;;;7.60;75.50;;;;;;5079949;28;19977;-87
2021/04/17 07:57:53;;;;;;;;;;;7.80;73.30;;;;;;5081502;28;19916;-90
2021/04/17 08:00:20;;;;;;;;;;;8.10;72.90;;;;;;5082544;28;19924;-86
2021/04/17 08:02:48;;;;;;;;;;;8.30;72.40;;;;;;5089770;28;19920;-87
2021/04/17 08:05:14;;;;;;;;;;;8.40;70.00;;;;;;5084160;28;19919;-87
2021/04/17 08:07:46;;;;;;;;;;;8.50;72.50;;;;;;5081562;28;19925;-87
2021/04/17 08:10:12;;;;;;;;;;;8.60;68.20;;;;;;5090877;28;19915;-83
2021/04/17 08:12:39;;;;;;;;;;;8.60;66.80;;;;;;5099684;27;19927;-87
2021/04/17 08:15:05;;;;;;;;;;;8.50;66.50;;;;;;5102114;27;19920;-86
2021/04/17 08:17:31;;;;;;;;;;;8.60;67.50;;;;;;5085838;28;19912;-87
2021/04/17 08:19:57;;;;;;;;;;;8.50;67.30;;;;;;5098683;28;19917;-81
2021/04/17 08:22:24;;;;;;;;;;;8.60;69.10;;;;;;5080867;28;19935;-80
2021/04/17 08:24:49;;;;;;;;;;;8.70;66.60;;;;;;5090606;28;20007;-81
2021/04/17 08:27:19;;;;;;;;;;;8.70;66.70;;;;;;5094294;28;20007;-85
2021/04/17 08:29:47;;;;;;;;;;;8.80;68.10;;;;;;5086413;28;19931;-85
2021/04/17 08:32:25;;;;;;;;;;;8.80;64.40;;;;;;5085556;28;19924;-82
2021/04/17 08:35:00;;;;;;;;;;;8.90;64.80;;;;;;5089062;28;19931;-85
2021/04/17 08:37:30;;;;;;;;;;;8.90;67.10;;;;;;5086574;28;20654;-85
2021/04/17 08:39:58;;;;;;;;;;;8.90;65.80;;;;;;5086589;28;19912;-85
2021/04/17 08:42:44;;;;;;;;;;;9.10;67.90;;;;;;5084368;28;19964;-86
2021/04/17 08:48:12;;;;;;;;;;;9.30;63.10;;;;;;5079533;28;19920;-89
2021/04/17 08:50:40;;;;;;;;;;;9.60;67.50;;;;;;5085200;28;19920;-88
2021/04/17 08:53:13;;;;;;;;;;;9.50;64.90;;;;;;5086036;28;19912;-88
2021/04/17 08:55:39;;;;;;;;;;;9.50;66.00;;;;;;5094023;28;19955;-86
2021/04/17 08:58:11;;;;;;;;;;;9.40;62.50;;;;;;5084232;28;19930;-87
2021/04/17 09:00:39;;;;;;;;;;;9.40;64.80;;;;;;5087241;28;19946;-84
2021/04/17 09:03:18;;;;;;;;;;;9.50;63.50;;;;;;5085238;28;19977;-84
2021/04/17 09:05:47;;;;;;;;;;;9.70;66.10;;;;;;4736667;27;9999900;-87
2021/04/17 09:08:14;;;;;;;;;;;9.90;62.70;;;;;;5088026;28;20631;-89
2021/04/17 09:10:40;;;;;;;;;;;9.80;63.10;;;;;;5092091;28;19920;-84
2021/04/17 09:13:08;;;;;;;;;;;10.00;64.20;;;;;;5080270;28;20565;-85
2021/04/17 09:15:50;;;;;;;;;;;10.00;60.50;;;;;;5085868;28;19915;-85
2021/04/17 09:18:37;;;;;;;;;;;9.80;59.60;;;;;;5086357;28;19922;-90
2021/04/17 09:21:15;;;;;;;;;;;10.00;62.80;;;;;;5090833;28;20279;-88
2021/04/17 09:23:46;;;;;;;;;;;10.20;64.10;;;;;;5088825;28;19927;-89
2021/04/17 09:26:30;;;;;;;;;;;10.20;61.90;;;;;;5094449;28;19928;-86
2021/04/17 09:29:14;;;;;;;;;;;10.40;62.10;;;;;;5085555;28;19933;-88
2021/04/17 09:31:40;;;;;;;;;;;10.50;60.60;;;;;;5085995;28;19920;-86
2021/04/17 09:34:16;;;;;;;;;;;10.50;59.20;;;;;;5085909;28;19924;-82
2021/04/17 09:36:43;;;;;;;;;;;10.60;58.10;;;;;;5086999;28;19917;-88
2021/04/17 09:39:26;;;;;;;;;;;10.80;60.00;;;;;;5091684;28;19931;-84
2021/04/17 09:41:52;;;;;;;;;;;10.60;56.90;;;;;;5092239;28;19981;-82
2021/04/17 09:44:18;;;;;;;;;;;10.40;58.10;;;;;;5087579;28;19920;-86
2021/04/17 09:46:44;;;;;;;;;;;10.20;58.10;;;;;;5089750;28;19923;-84
2021/04/17 09:49:09;;;;;;;;;;;9.70;56.00;;;;;;5090580;28;19971;-87
2021/04/17 09:51:35;;;;;;;;;;;9.70;58.60;;;;;;5094110;28;19912;-86
2021/04/17 09:54:06;;;;;;;;;;;9.60;58.60;;;;;;5087790;28;19915;-84
2021/04/17 09:56:33;;;;;;;;;;;9.60;60.50;;;;;;5091695;28;20455;-85
2021/04/17 09:59:06;;;;;;;;;;;9.60;58.50;;;;;;5094779;28;19927;-85
2021/04/17 10:01:32;;;;;;;;;;;9.80;61.70;;;;;;5090520;28;19973;-86
2021/04/17 10:03:59;;;;;;;;;;;9.90;58.00;;;;;;5091806;28;20361;-85
2021/04/17 10:06:36;;;;;;;;;;;10.10;59.30;;;;;;5088956;28;20003;-85
2021/04/17 10:09:09;;;;;;;;;;;10.30;61.40;;;;;;5087914;28;20363;-85
2021/04/17 10:11:35;;;;;;;;;;;10.30;60.70;;;;;;5093678;28;19912;-86
2021/04/17 10:14:01;;;;;;;;;;;10.40;60.40;;;;;;5085981;28;20285;-80
2021/04/17 10:16:35;;;;;;;;;;;10.80;61.60;;;;;;5085894;28;19924;-79
2021/04/17 10:19:04;;;;;;;;;;;10.70;58.60;;;;;;5091712;28;19917;-79
2021/04/17 10:21:30;;;;;;;;;;;10.80;60.40;;;;;;5087622;28;20392;-78
2021/04/17 10:24:15;;;;;;;;;;;10.70;57.00;;;;;;5090069;28;19912;-79
2021/04/17 10:27:08;;;;;;;;;;;10.70;59.60;;;;;;5054022;28;19920;-79
2021/04/17 10:29:37;;;;;;;;;;;11.00;59.90;;;;;;5055179;28;20492;-80
2021/04/17 10:32:05;;;;;;;;;;;11.40;59.60;;;;;;5044695;28;19913;-79
2021/04/17 10:34:33;;;;;;;;;;;11.40;59.60;;;;;;5064807;28;19921;-79
2021/04/17 10:37:02;;;;;;;;;;;11.40;55.10;;;;;;5049419;28;19920;-79
2021/04/17 10:39:30;;;;;;;;;;;11.10;53.10;;;;;;5052884;28;19927;-78
2021/04/17 10:42:00;;;;;;;;;;;10.90;53.90;;;;;;5049575;28;19912;-78
2021/04/17 10:44:28;;;;;;;;;;;10.60;56.60;;;;;;5045924;28;19924;-79
2021/04/17 10:46:57;;;;;;;;;;;10.60;56.00;;;;;;5045665;28;20369;-77
2021/04/17 10:49:32;;;;;;;;;;;10.50;55.10;;;;;;5050185;28;19917;-79
2021/04/17 10:52:00;;;;;;;;;;;10.70;59.00;;;;;;5063727;28;19913;-80
2021/04/17 10:54:26;;;;;;;;;;;10.90;60.10;;;;;;5048396;28;20385;-77
2021/04/17 10:57:17;;;;;;;;;;;10.80;52.50;;;;;;5046816;28;19920;-79
2021/04/17 10:59:52;;;;;;;;;;;10.90;53.40;;;;;;5049271;28;20285;-79
2021/04/17 11:02:25;;;;;;;;;;;11.00;55.70;;;;;;5056309;28;19912;-78
2021/04/17 11:04:50;;;;;;;;;;;11.30;54.40;;;;;;5078133;28;19928;-80
2021/04/17 11:07:16;;;;;;;;;;;11.70;57.30;;;;;;5044821;28;19956;-79
2021/04/17 11:09:48;;;;;;;;;;;11.50;54.50;;;;;;5049969;28;20004;-79
2021/04/17 11:12:30;;;;;;;;;;;11.60;57.40;;;;;;5045318;28;19931;-80
2021/04/17 11:15:31;;;;;;;;;;;11.40;52.50;;;;;;5052347;28;19983;-79
2021/04/17 11:18:12;;;;;;;;;;;11.20;54.10;;;;;;5028739;28;19967;-79
2021/04/17 11:20:46;;;;;;;;;;;10.90;54.70;;;;;;5046554;28;21690;-79
2021/04/17 11:23:48;;;;;;;;;;;11.00;56.80;;;;;;5064592;28;20015;-78
2021/04/17 11:26:22;;;;;;;;;;;11.00;57.60;;;;;;5059008;28;19928;-79
2021/04/17 11:28:49;;;;;;;;;;;11.10;55.70;;;;;;5056188;28;20009;-78
2021/04/17 11:31:17;;;;;;;;;;;11.20;56.30;;;;;;5046409;28;19920;-78
2021/04/17 11:33:46;;;;;;;;;;;11.20;54.80;;;;;;5048845;28;19932;-79
2021/04/17 11:36:11;;;;;;;;;;;11.30;58.20;;;;;;5047021;28;19917;-78
2021/04/17 11:38:39;;;;;;;;;;;11.40;56.60;;;;;;5046194;28;19927;-78
2021/04/17 11:41:05;;;;;;;;;;;11.20;54.40;;;;;;5078599;28;19925;-79
2021/04/17 11:43:30;;;;;;;;;;;10.90;54.50;;;;;;5052035;28;19947;-78
2021/04/17 11:45:56;;;;;;;;;;;10.70;57.60;;;;;;5048410;28;20654;-79
2021/04/17 11:48:21;;;;;;;;;;;10.60;56.60;;;;;;5047344;28;20348;-76
2021/04/17 11:50:49;;;;;;;;;;;10.60;55.40;;;;;;5039215;28;20076;-78
2021/04/17 11:53:20;;;;;;;;;;;10.30;55.70;;;;;;5051056;28;19931;-78
2021/04/17 11:55:48;;;;;;;;;;;10.40;60.20;;;;;;5046464;28;19913;-79
2021/04/17 11:58:19;;;;;;;;;;;10.60;61.00;;;;;;5045701;28;19920;-78
2021/04/17 12:00:44;;;;;;;;;;;10.60;58.80;;;;;;5048066;28;19924;-78
2021/04/17 12:03:10;;;;;;;;;;;10.70;57.80;;;;;;5043340;28;19921;-77
2021/04/17 12:05:35;;;;;;;;;;;10.60;57.80;;;;;;5046525;28;19923;-78
2021/04/17 12:08:01;;;;;;;;;;;10.60;58.50;;;;;;5045126;28;19931;-77
2021/04/17 12:10:27;;;;;;;;;;;10.50;57.30;;;;;;5047187;28;20503;-77
2021/04/17 12:12:57;;;;;;;;;;;10.10;57.90;;;;;;5034390;28;19952;-78
2021/04/17 12:15:23;;;;;;;;;;;10.20;59.80;;;;;;5045645;28;19931;-77
2021/04/17 12:17:50;;;;;;;;;;;10.20;59.00;;;;;;5043670;28;19917;-77
2021/04/17 12:20:18;;;;;;;;;;;10.40;60.60;;;;;;5029095;28;19921;-78
2021/04/17 12:22:44;;;;;;;;;;;10.30;59.00;;;;;;5046889;28;20393;-77
2021/04/17 12:25:10;;;;;;;;;;;9.80;57.80;;;;;;5056472;28;19977;-78
2021/04/17 12:27:38;;;;;;;;;;;9.90;59.00;;;;;;5123781;27;20364;-76
2021/04/17 12:30:04;;;;;;;;;;;9.70;59.10;;;;;;5089261;28;20351;-78
2021/04/17 12:32:32;;;;;;;;;;;9.60;62.70;;;;;;5086850;28;19964;-78
2021/04/17 12:34:58;;;;;;;;;;;9.60;61.40;;;;;;5090018;28;19924;-77
2021/04/17 12:37:26;;;;;;;;;;;9.50;60.80;;;;;;5085421;28;19915;-77
2021/04/17 12:39:53;;;;;;;;;;;9.40;61.00;;;;;;5085711;28;19917;-77
2021/04/17 12:42:18;;;;;;;;;;;9.40;61.30;;;;;;5090196;28;19911;-78
2021/04/17 12:44:46;;;;;;;;;;;9.50;63.20;;;;;;5084936;28;19912;-78
2021/04/17 12:47:12;;;;;;;;;;;9.40;61.50;;;;;;5082392;28;20033;-78
2021/04/17 12:49:37;;;;;;;;;;;9.50;62.30;;;;;;5084144;28;19970;-79
2021/04/17 12:52:03;;;;;;;;;;;9.50;61.20;;;;;;5090852;28;19943;-77
2021/04/17 12:54:31;;;;;;;;;;;9.60;61.90;;;;;;5085040;28;20127;-78
2021/04/17 12:56:57;;;;;;;;;;;9.50;60.60;;;;;;5087286;28;19923;-78
2021/04/17 12:59:23;;;;;;;;;;;9.30;60.70;;;;;;5083998;28;19928;-78
2021/04/17 13:01:49;;;;;;;;;;;9.20;61.10;;;;;;5085609;28;19923;-76
2021/04/17 13:04:16;;;;;;;;;;;9.20;61.90;;;;;;5081863;28;19916;-78
2021/04/17 13:06:47;;;;;;;;;;;9.40;63.70;;;;;;5082682;28;20268;-79
2021/04/17 13:09:15;;;;;;;;;;;9.80;67.30;;;;;;5091472;28;20119;-78
2021/04/17 13:11:40;;;;;;;;;;;9.90;62.60;;;;;;5091514;28;19973;-78
2021/04/17 13:14:09;;;;;;;;;;;10.00;62.70;;;;;;5091957;28;19942;-79
2021/04/17 13:16:36;;;;;;;;;;;10.10;62.30;;;;;;5091257;28;20042;-79
2021/04/17 13:19:04;;;;;;;;;;;10.00;60.70;;;;;;5092650;28;19916;-78
2021/04/17 13:21:29;;;;;;;;;;;9.80;60.80;;;;;;5097397;28;19919;-79
2021/04/17 13:23:55;;;;;;;;;;;9.80;63.10;;;;;;5092497;28;20036;-78
2021/04/17 13:26:21;;;;;;;;;;;9.70;61.90;;;;;;5094783;28;19935;-76
2021/04/17 13:28:47;;;;;;;;;;;9.40;61.50;;;;;;5068944;28;20453;-77
2021/04/17 13:31:12;;;;;;;;;;;9.30;62.20;;;;;;5092594;28;19934;-77
2021/04/17 13:33:38;;;;;;;;;;;9.30;64.30;;;;;;5093291;28;19917;-76
2021/04/17 13:36:04;;;;;;;;;;;9.10;63.20;;;;;;5098389;28;20018;-77
2021/04/17 13:38:30;;;;;;;;;;;9.00;63.40;;;;;;5094319;28;19919;-77
2021/04/17 13:40:56;;;;;;;;;;;9.00;64.60;;;;;;5093687;28;19923;-77
2021/04/17 13:43:21;;;;;;;;;;;8.90;63.70;;;;;;5088899;28;20308;-77
2021/04/17 13:45:47;;;;;;;;;;;9.00;65.60;;;;;;5095952;28;19916;-77
2021/04/17 13:48:15;;;;;;;;;;;8.90;65.70;;;;;;5090218;28;19926;-77
2021/04/17 13:50:40;;;;;;;;;;;8.90;66.10;;;;;;5094933;28;19912;-76
2021/04/17 13:53:06;;;;;;;;;;;8.80;65.50;;;;;;5090221;28;19927;-77
2021/04/17 13:55:34;;;;;;;;;;;8.70;66.20;;;;;;5096416;28;19912;-77
2021/04/17 13:58:02;;;;;;;;;;;8.90;66.90;;;;;;5092851;28;20451;-77
2021/04/17 14:00:33;;;;;;;;;;;8.90;67.40;;;;;;5094028;28;19927;-77
2021/04/17 14:03:00;;;;;;;;;;;8.90;65.90;;;;;;5096264;28;20510;-78
2021/04/17 14:05:29;;;;;;;;;;;9.00;67.20;;;;;;5091408;28;19912;-76
2021/04/17 14:07:54;;;;;;;;;;;8.90;66.50;;;;;;5090388;28;19934;-77
2021/04/17 14:10:22;;;;;;;;;;;8.90;66.30;;;;;;5090061;28;19912;-76
2021/04/17 14:12:53;;;;;;;;;;;8.70;65.40;;;;;;5105392;27;20410;-77
2021/04/17 14:15:18;;;;;;;;;;;8.80;67.50;;;;;;5090020;28;19927;-76
2021/04/17 14:17:44;;;;;;;;;;;8.70;67.00;;;;;;5090035;28;19911;-77
2021/04/17 14:20:10;;;;;;;;;;;8.70;68.20;;;;;;5073170;28;19973;-77
2021/04/17 14:22:38;;;;;;;;;;;8.80;68.90;;;;;;5089587;28;19912;-77
2021/04/17 14:25:03;;;;;;;;;;;8.80;68.10;;;;;;5076570;28;19943;-77
2021/04/17 14:27:31;;;;;;;;;;;8.60;65.90;;;;;;5103148;27;19925;-77
2021/04/17 14:29:58;;;;;;;;;;;8.60;67.10;;;;;;5090743;28;20121;-77
2021/04/17 14:32:25;;;;;;;;;;;8.50;66.80;;;;;;5123449;27;20003;-77
2021/04/17 14:34:56;;;;;;;;;;;8.50;69.20;;;;;;5093561;28;20024;-77